• Join FlightAware (Why Join?)
  • Login
  • US Flag 
10:16PM EDT


 

Airport Tracker/Info


-or-


 

Live Flight TrackerFlight Track Log ✈ JIA2382 ✈ 31-Jul-2013 ✈ KCLT - KPGV

Flight Track Log - Related Links

Times and Time Zones

All times are in EDT time to prevent confusion due to time zone crossing. See the JIA2382 flight status page for this flight to view local times or setup timezone preferences in your user account.

Time Position Orientation Groundspeed Altitude Reporting Facility
EDT Latitude Longitude Course Direction KTS MPH feet Rate Location/Type
09:26AM 35.1908 -80.9356 72° East 165 190 1,700  Level Atlanta Center
09:27AM 35.1553 -80.9294 172° South 187 215 3,000 2,100 Climbing Atlanta Center
09:28AM 35.0994 -80.8756 142° Southeast 264 304 5,400 2,280 Climbing Atlanta Center
09:28AM 35.0836 -80.8206 109° East 277 319 6,900 960 Climbing Atlanta Center
09:29AM 35.1413 -80.6058 29° Northeast  Level FlightAware Approximate
09:29AM 35.1189 -80.7353 63° Northeast 283 326 7,000  Level Atlanta Center
09:30AM 35.2469 -80.5332 30° Northeast  Level FlightAware Approximate
09:30AM 35.1586 -80.6600 57° Northeast 297 342 8,800  Level Atlanta Center
09:31AM 35.3365 -80.4548 72° East  Level FlightAware Approximate
09:31AM 35.2061 -80.5717 57° Northeast 336 387 10,900  Level Atlanta Center
09:33AM 35.3131 -80.3736 56° Northeast 345 397 14,900 1,800 Climbing Atlanta Center
09:34AM 35.3683 -80.2694 57° Northeast 356 410 16,400 1,500 Climbing Atlanta Center
09:35AM 35.4233 -80.1650 57° Northeast 356 410 17,900 1,320 Climbing Atlanta Center
09:36AM 35.4478 -80.0819 70° East 354 407 18,600 960 Climbing Washington Center
09:37AM 35.4747 -79.9814 72° East 366 421 19,500 1,020 Climbing Washington Center
09:38AM 35.5136 -79.8253 73° East 382 440 20,700 1,080 Climbing Washington Center
09:39AM 35.5450 -79.6994 73° East 387 445 21,700 960 Climbing Washington Center
09:40AM 35.5561 -79.5622 84° East 392 451 22,700 600 Climbing Washington Center
09:41AM 35.5606 -79.4219 88° East 397 457 23,000 120 Climbing Washington Center
09:42AM 35.5692 -79.2819 86° East 409 471 23,000  Level Washington Center
09:43AM 35.5756 -79.1417 87° East 409 471 23,000  Level Washington Center
09:44AM 35.5797 -78.9989 88° East 409 471 23,000 -60 Level Washington Center
09:45AM 35.5858 -78.8561 87° East 409 471 22,900 -840 Descending Washington Center
09:46AM 35.5894 -78.7133 88° East 417 480 21,400 -1,740 Descending Washington Center
09:47AM 35.5953 -78.5756 87° East 407 468 19,400 -1,800 Descending Washington Center
09:48AM 35.6003 -78.4583 87° East 393 452 17,800 -1,620 Descending Washington Center
09:49AM 35.6072 -78.3281 86° East 382 440 16,200 2,640 Descending Washington Center
09:50AM 35.6122 -78.2031 87° East 377 434 23,000 -2,160 Climbing Washington Center
09:51AM 35.6147 -78.0831 88° East 366 421 12,000 -6,420 Descending Washington Center
09:52AM 35.6192 -77.9708 87° East 342 394 10,000 -1,920 Descending Washington Center
09:53AM 35.6211 -77.8636 89° East 324 373 8,100 -1,980 Descending Washington Center
09:54AM 35.6250 -77.7692 87° East 295 339 6,100 -1,920 Descending Washington Center
09:55AM 35.6267 -77.6772 89° East 274 315 4,300 -1,740 Descending Washington Center
09:56AM 35.6197 -77.5928 96° East 259 298 2,700 -1,200 Descending Washington Center
09:57AM 35.6022 -77.5208 107° East 236 272 2,000 -600 Descending Washington Center
09:58AM 35.5886 -77.4642 106° East 202 232 1,400 -480 Descending Washington Center
09:59AM 35.5833 -77.4028 96° East 172 198 1,000 -300 Descending Washington Center
10:00AM 35.5717 -77.3411 103° East 162 186 900 -120 Descending Washington Center